Terminal Aerodrome Forecast
Issued by NWS

Home | Current Version | Previous Version | Text Only | Print | Product List | Glossary On
Versions: 1 2 3 4 5 6 7 8 9 10 11 12 13 14 15 16 17 18 19 20 21
901
FTUS46 KMTR 271725
TAFSNS
TAF
KSNS 271725Z 2718/2818 29007KT P6SM SKC
     FM271900 29014KT P6SM SKC
     FM280600 29007KT P6SM BKN015
     FM280800 28005KT P6SM OVC009
     FM281200 28003KT 3SM BR OVC004
     FM281700 29003KT P6SM SKC=

USA.gov is the U.S. government's official web portal to all federal, state and local government web resources and services.